sensor_id;sensor_type;location;lat;lon;timestamp;pressure;altitude;pressure_sealevel;temperature;humidity
61394;BME280;48555;50.952;-0.120;2023-12-20T00:01:00;101700.84;;;7.62;80.63
61394;BME280;48555;50.952;-0.120;2023-12-20T00:03:25;101686.34;;;7.56;80.57
61394;BME280;48555;50.952;-0.120;2023-12-20T00:05:51;101701.19;;;7.54;80.66
61394;BME280;48555;50.952;-0.120;2023-12-20T00:08:16;101712.38;;;7.56;81.10
61394;BME280;48555;50.952;-0.120;2023-12-20T00:10:43;101717.34;;;7.61;80.80
61394;BME280;48555;50.952;-0.120;2023-12-20T00:13:09;101697.03;;;7.50;81.05
61394;BME280;48555;50.952;-0.120;2023-12-20T00:15:34;101712.28;;;7.58;80.90
61394;BME280;48555;50.952;-0.120;2023-12-20T00:18:00;101735.81;;;7.56;81.02
61394;BME280;48555;50.952;-0.120;2023-12-20T00:20:26;101732.28;;;7.57;81.11
61394;BME280;48555;50.952;-0.120;2023-12-20T00:22:52;101722.00;;;7.54;80.97
61394;BME280;48555;50.952;-0.120;2023-12-20T00:25:17;101723.75;;;7.54;80.95
61394;BME280;48555;50.952;-0.120;2023-12-20T00:27:43;101721.22;;;7.52;80.82
61394;BME280;48555;50.952;-0.120;2023-12-20T00:30:09;101724.66;;;7.53;81.04
61394;BME280;48555;50.952;-0.120;2023-12-20T00:32:35;101716.22;;;7.47;81.14
61394;BME280;48555;50.952;-0.120;2023-12-20T00:35:00;101715.34;;;7.47;81.72
61394;BME280;48555;50.952;-0.120;2023-12-20T00:37:26;101721.16;;;7.54;81.51
61394;BME280;48555;50.952;-0.120;2023-12-20T00:39:51;101714.25;;;7.53;81.41
61394;BME280;48555;50.952;-0.120;2023-12-20T00:42:16;101716.13;;;7.49;81.76
61394;BME280;48555;50.952;-0.120;2023-12-20T00:44:42;101729.84;;;7.53;81.74
61394;BME280;48555;50.952;-0.120;2023-12-20T00:47:07;101724.47;;;7.57;82.00
61394;BME280;48555;50.952;-0.120;2023-12-20T00:49:32;101732.97;;;7.61;81.67
61394;BME280;48555;50.952;-0.120;2023-12-20T00:51:58;101731.03;;;7.66;81.49
61394;BME280;48555;50.952;-0.120;2023-12-20T00:54:23;101735.25;;;7.68;81.70
61394;BME280;48555;50.952;-0.120;2023-12-20T00:56:48;101735.13;;;7.71;81.65
61394;BME280;48555;50.952;-0.120;2023-12-20T00:59:13;101738.84;;;7.66;81.52
61394;BME280;48555;50.952;-0.120;2023-12-20T01:01:40;101716.22;;;7.47;81.89
61394;BME280;48555;50.952;-0.120;2023-12-20T01:04:05;101738.53;;;7.53;82.09
61394;BME280;48555;50.952;-0.120;2023-12-20T01:06:30;101725.66;;;7.50;82.12
61394;BME280;48555;50.952;-0.120;2023-12-20T01:08:55;101735.53;;;7.62;81.93
61394;BME280;48555;50.952;-0.120;2023-12-20T01:11:21;101730.19;;;7.65;82.00
61394;BME280;48555;50.952;-0.120;2023-12-20T01:13:47;101718.81;;;7.68;81.71
61394;BME280;48555;50.952;-0.120;2023-12-20T01:16:12;101728.09;;;7.73;81.63
61394;BME280;48555;50.952;-0.120;2023-12-20T01:18:38;101712.59;;;7.70;81.71
61394;BME280;48555;50.952;-0.120;2023-12-20T01:21:04;101707.97;;;7.77;81.93
61394;BME280;48555;50.952;-0.120;2023-12-20T01:23:30;101701.78;;;7.80;81.58
61394;BME280;48555;50.952;-0.120;2023-12-20T01:25:55;101700.09;;;7.79;81.28
61394;BME280;48555;50.952;-0.120;2023-12-20T01:28:20;101709.59;;;7.80;81.53
61394;BME280;48555;50.952;-0.120;2023-12-20T01:30:46;101703.81;;;7.73;81.78
61394;BME280;48555;50.952;-0.120;2023-12-20T01:33:11;101711.41;;;7.78;81.79
61394;BME280;48555;50.952;-0.120;2023-12-20T01:35:37;101724.31;;;7.81;81.83
61394;BME280;48555;50.952;-0.120;2023-12-20T01:38:02;101704.53;;;7.77;81.91
61394;BME280;48555;50.952;-0.120;2023-12-20T01:40:28;101707.00;;;7.80;81.82
61394;BME280;48555;50.952;-0.120;2023-12-20T01:43:06;101704.13;;;7.86;81.93
61394;BME280;48555;50.952;-0.120;2023-12-20T01:45:32;101701.78;;;7.80;81.78
61394;BME280;48555;50.952;-0.120;2023-12-20T01:47:58;101700.91;;;7.79;81.86
61394;BME280;48555;50.952;-0.120;2023-12-20T01:50:25;101698.31;;;7.79;81.99
61394;BME280;48555;50.952;-0.120;2023-12-20T01:52:51;101688.25;;;7.71;81.81
61394;BME280;48555;50.952;-0.120;2023-12-20T01:55:19;101697.88;;;7.69;82.14
61394;BME280;48555;50.952;-0.120;2023-12-20T01:57:44;101692.81;;;7.66;82.36
61394;BME280;48555;50.952;-0.120;2023-12-20T02:00:11;101691.06;;;7.67;82.61
61394;BME280;48555;50.952;-0.120;2023-12-20T02:02:39;101687.63;;;7.66;82.81
61394;BME280;48555;50.952;-0.120;2023-12-20T02:05:05;101698.94;;;7.65;82.83
61394;BME280;48555;50.952;-0.120;2023-12-20T02:07:31;101703.47;;;7.62;82.98
61394;BME280;48555;50.952;-0.120;2023-12-20T02:09:57;101699.97;;;7.61;82.91
61394;BME280;48555;50.952;-0.120;2023-12-20T02:12:22;101693.09;;;7.60;83.09
61394;BME280;48555;50.952;-0.120;2023-12-20T02:14:48;101702.59;;;7.61;83.43
61394;BME280;48555;50.952;-0.120;2023-12-20T02:17:14;101703.31;;;7.65;83.21
61394;BME280;48555;50.952;-0.120;2023-12-20T02:19:40;101696.22;;;7.68;83.00
61394;BME280;48555;50.952;-0.120;2023-12-20T02:22:07;101685.72;;;7.70;83.00
61394;BME280;48555;50.952;-0.120;2023-12-20T02:24:33;101679.47;;;7.74;82.90
61394;BME280;48555;50.952;-0.120;2023-12-20T02:26:58;101665.31;;;7.61;82.87
61394;BME280;48555;50.952;-0.120;2023-12-20T02:29:23;101687.16;;;7.77;82.69
61394;BME280;48555;50.952;-0.120;2023-12-20T02:31:49;101676.38;;;7.66;83.02
61394;BME280;48555;50.952;-0.120;2023-12-20T02:34:14;101686.06;;;7.62;83.00
61394;BME280;48555;50.952;-0.120;2023-12-20T02:36:39;101677.53;;;7.59;83.28
61394;BME280;48555;50.952;-0.120;2023-12-20T02:39:05;101667.19;;;7.57;83.57
61394;BME280;48555;50.952;-0.120;2023-12-20T02:41:30;101676.56;;;7.61;83.87
61394;BME280;48555;50.952;-0.120;2023-12-20T02:43:55;101671.44;;;7.60;83.56
61394;BME280;48555;50.952;-0.120;2023-12-20T02:46:20;101664.09;;;7.49;83.63
61394;BME280;48555;50.952;-0.120;2023-12-20T02:48:46;101659.94;;;7.45;84.07
61394;BME280;48555;50.952;-0.120;2023-12-20T02:51:12;101671.00;;;7.50;84.04
61394;BME280;48555;50.952;-0.120;2023-12-20T02:53:37;101674.72;;;7.44;84.14
61394;BME280;48555;50.952;-0.120;2023-12-20T02:56:03;101667.94;;;7.40;84.42
61394;BME280;48555;50.952;-0.120;2023-12-20T02:58:28;101669.69;;;7.40;84.21
61394;BME280;48555;50.952;-0.120;2023-12-20T03:00:54;101678.47;;;7.37;84.48
61394;BME280;48555;50.952;-0.120;2023-12-20T03:03:19;101690.50;;;7.40;84.56
61394;BME280;48555;50.952;-0.120;2023-12-20T03:05:45;101692.00;;;7.45;84.32
61394;BME280;48555;50.952;-0.120;2023-12-20T03:08:11;101683.41;;;7.43;84.55
61394;BME280;48555;50.952;-0.120;2023-12-20T03:10:37;101693.63;;;7.48;84.38
61394;BME280;48555;50.952;-0.120;2023-12-20T03:13:02;101695.31;;;7.49;84.44
61394;BME280;48555;50.952;-0.120;2023-12-20T03:15:27;101701.34;;;7.49;84.38
61394;BME280;48555;50.952;-0.120;2023-12-20T03:17:53;101700.19;;;7.57;84.05
61394;BME280;48555;50.952;-0.120;2023-12-20T03:20:18;101697.78;;;7.52;83.70
61394;BME280;48555;50.952;-0.120;2023-12-20T03:22:43;101697.50;;;7.58;83.87
61394;BME280;48555;50.952;-0.120;2023-12-20T03:25:09;101690.75;;;7.54;83.70
61394;BME280;48555;50.952;-0.120;2023-12-20T03:27:37;101687.75;;;7.63;83.61
61394;BME280;48555;50.952;-0.120;2023-12-20T03:30:04;101685.34;;;7.59;83.18
61394;BME280;48555;50.952;-0.120;2023-12-20T03:32:29;101673.19;;;7.59;83.47
61394;BME280;48555;50.952;-0.120;2023-12-20T03:34:55;101670.31;;;7.65;83.40
61394;BME280;48555;50.952;-0.120;2023-12-20T03:37:21;101671.03;;;7.69;82.97
61394;BME280;48555;50.952;-0.120;2023-12-20T03:39:47;101659.69;;;7.70;83.24
61394;BME280;48555;50.952;-0.120;2023-12-20T03:42:12;101658.06;;;7.67;83.11
61394;BME280;48555;50.952;-0.120;2023-12-20T03:44:41;101662.50;;;7.65;83.31
61394;BME280;48555;50.952;-0.120;2023-12-20T03:47:06;101662.38;;;7.68;83.53
61394;BME280;48555;50.952;-0.120;2023-12-20T03:49:32;101664.00;;;7.71;82.97
61394;BME280;48555;50.952;-0.120;2023-12-20T03:51:57;101658.69;;;7.72;83.08
61394;BME280;48555;50.952;-0.120;2023-12-20T03:54:22;101664.56;;;7.78;83.08
61394;BME280;48555;50.952;-0.120;2023-12-20T03:56:48;101639.84;;;7.67;83.04
61394;BME280;48555;50.952;-0.120;2023-12-20T03:59:13;101665.34;;;7.80;82.84
61394;BME280;48555;50.952;-0.120;2023-12-20T04:01:43;101664.47;;;7.79;82.85
61394;BME280;48555;50.952;-0.120;2023-12-20T04:04:08;101674.81;;;7.81;82.97
61394;BME280;48555;50.952;-0.120;2023-12-20T04:06:34;101668.78;;;7.80;82.88
61394;BME280;48555;50.952;-0.120;2023-12-20T04:08:59;101676.72;;;7.77;nan
61394;BME280;48555;50.952;-0.120;2023-12-20T04:11:24;101685.44;;;7.76;82.64
61394;BME280;48555;50.952;-0.120;2023-12-20T04:13:50;101689.88;;;7.74;82.74
61394;BME280;48555;50.952;-0.120;2023-12-20T04:16:15;101695.28;;;7.69;82.76
61394;BME280;48555;50.952;-0.120;2023-12-20T04:18:41;101689.28;;;7.67;82.98
61394;BME280;48555;50.952;-0.120;2023-12-20T04:21:06;101690.16;;;7.68;82.88
61394;BME280;48555;50.952;-0.120;2023-12-20T04:23:32;101687.56;;;7.68;82.71
61394;BME280;48555;50.952;-0.120;2023-12-20T04:25:57;101683.34;;;7.65;82.68
61394;BME280;48555;50.952;-0.120;2023-12-20T04:28:23;101688.53;;;7.65;82.57
61394;BME280;48555;50.952;-0.120;2023-12-20T04:30:48;101679.25;;;7.60;82.78
61394;BME280;48555;50.952;-0.120;2023-12-20T04:33:14;101681.91;;;7.58;83.08
61394;BME280;48555;50.952;-0.120;2023-12-20T04:35:39;101675.00;;;7.57;83.31
61394;BME280;48555;50.952;-0.120;2023-12-20T04:38:06;101675.06;;;7.56;83.38
61394;BME280;48555;50.952;-0.120;2023-12-20T04:40:31;101676.63;;;7.60;83.58
61394;BME280;48555;50.952;-0.120;2023-12-20T04:42:57;101671.16;;;7.66;83.64
61394;BME280;48555;50.952;-0.120;2023-12-20T04:45:22;101664.00;;;7.71;83.64
61394;BME280;48555;50.952;-0.120;2023-12-20T04:47:50;101663.91;;;7.72;83.46
61394;BME280;48555;50.952;-0.120;2023-12-20T04:50:15;101650.88;;;7.72;83.38
61394;BME280;48555;50.952;-0.120;2023-12-20T04:52:41;101654.34;;;7.73;83.60
61394;BME280;48555;50.952;-0.120;2023-12-20T04:55:06;101657.53;;;7.80;83.78
61394;BME280;48555;50.952;-0.120;2023-12-20T04:57:32;101667.03;;;7.81;83.65
61394;BME280;48555;50.952;-0.120;2023-12-20T04:59:57;101658.41;;;7.79;83.60
61394;BME280;48555;50.952;-0.120;2023-12-20T05:02:22;101660.97;;;7.80;83.60
61394;BME280;48555;50.952;-0.120;2023-12-20T05:04:48;101670.25;;;7.86;83.69
61394;BME280;48555;50.952;-0.120;2023-12-20T05:07:13;101673.72;;;7.86;83.59
61394;BME280;48555;50.952;-0.120;2023-12-20T05:09:39;101678.06;;;7.86;83.46
61394;BME280;48555;50.952;-0.120;2023-12-20T05:12:04;101677.28;;;7.84;83.57
61394;BME280;48555;50.952;-0.120;2023-12-20T05:14:30;101674.88;;;7.79;83.46
61394;BME280;48555;50.952;-0.120;2023-12-20T05:16:56;101671.31;;;7.82;83.56
61394;BME280;48555;50.952;-0.120;2023-12-20T05:19:21;101671.03;;;7.88;83.65
61394;BME280;48555;50.952;-0.120;2023-12-20T05:21:47;101668.38;;;7.89;83.41
61394;BME280;48555;50.952;-0.120;2023-12-20T05:24:12;101674.22;;;7.94;83.50
61394;BME280;48555;50.952;-0.120;2023-12-20T05:26:38;101675.06;;;7.95;83.34
61394;BME280;48555;50.952;-0.120;2023-12-20T05:29:03;101675.75;;;7.99;83.37
61394;BME280;48555;50.952;-0.120;2023-12-20T05:31:28;101679.19;;;7.99;83.23
61394;BME280;48555;50.952;-0.120;2023-12-20T05:33:54;101661.25;;;7.93;83.28
61394;BME280;48555;50.952;-0.120;2023-12-20T05:36:19;101664.69;;;7.93;83.31
61394;BME280;48555;50.952;-0.120;2023-12-20T05:38:44;101657.84;;;7.91;83.32
61394;BME280;48555;50.952;-0.120;2023-12-20T05:41:10;101664.78;;;7.92;83.49
61394;BME280;48555;50.952;-0.120;2023-12-20T05:43:35;101669.19;;;7.90;83.45
61394;BME280;48555;50.952;-0.120;2023-12-20T05:46:00;101675.94;;;7.94;83.50
61394;BME280;48555;50.952;-0.120;2023-12-20T05:48:26;101674.50;;;7.88;83.49
61394;BME280;48555;50.952;-0.120;2023-12-20T05:50:52;101661.63;;;7.85;83.75
61394;BME280;48555;50.952;-0.120;2023-12-20T05:53:18;101670.88;;;7.91;83.64
61394;BME280;48555;50.952;-0.120;2023-12-20T05:55:43;101658.88;;;7.88;83.32
61394;BME280;48555;50.952;-0.120;2023-12-20T05:58:08;101661.94;;;7.96;83.35
61394;BME280;48555;50.952;-0.120;2023-12-20T06:00:34;101666.47;;;7.93;83.27
61394;BME280;48555;50.952;-0.120;2023-12-20T06:02:59;101673.47;;;7.91;83.26
61394;BME280;48555;50.952;-0.120;2023-12-20T06:05:25;101657.38;;;7.83;83.36
61394;BME280;48555;50.952;-0.120;2023-12-20T06:07:50;101655.06;;;7.77;83.53
61394;BME280;48555;50.952;-0.120;2023-12-20T06:10:16;101651.41;;;7.81;83.67
61394;BME280;48555;50.952;-0.120;2023-12-20T06:12:41;101643.78;;;7.76;83.80
61394;BME280;48555;50.952;-0.120;2023-12-20T06:15:07;101642.94;;;7.76;83.86
61394;BME280;48555;50.952;-0.120;2023-12-20T06:17:33;101636.09;;;7.73;84.27
61394;BME280;48555;50.952;-0.120;2023-12-20T06:20:00;101624.84;;;7.72;84.80
61394;BME280;48555;50.952;-0.120;2023-12-20T06:22:25;101621.13;;;7.78;84.92
61394;BME280;48555;50.952;-0.120;2023-12-20T06:24:50;101629.44;;;7.86;84.82
61394;BME280;48555;50.952;-0.120;2023-12-20T06:27:16;101624.88;;;7.91;85.33
61394;BME280;48555;50.952;-0.120;2023-12-20T06:29:41;101635.00;;;7.97;85.46
61394;BME280;48555;50.952;-0.120;2023-12-20T06:32:07;101629.66;;;8.01;85.33
61394;BME280;48555;50.952;-0.120;2023-12-20T06:34:33;101638.00;;;8.07;85.24
61394;BME280;48555;50.952;-0.120;2023-12-20T06:36:58;101633.88;;;8.03;85.02
61394;BME280;48555;50.952;-0.120;2023-12-20T06:39:23;101648.63;;;8.03;85.13
61394;BME280;48555;50.952;-0.120;2023-12-20T06:41:49;101646.16;;;8.00;85.21
61394;BME280;48555;50.952;-0.120;2023-12-20T06:44:14;101641.69;;;8.03;85.12
61394;BME280;48555;50.952;-0.120;2023-12-20T06:46:40;101637.47;;;8.01;84.79
61394;BME280;48555;50.952;-0.120;2023-12-20T06:49:05;101661.38;;;8.09;84.82
61394;BME280;48555;50.952;-0.120;2023-12-20T06:51:30;101650.13;;;8.08;85.07
61394;BME280;48555;50.952;-0.120;2023-12-20T06:53:56;101651.03;;;8.07;84.74
61394;BME280;48555;50.952;-0.120;2023-12-20T06:56:21;101638.84;;;8.08;84.75
61394;BME280;48555;50.952;-0.120;2023-12-20T06:58:47;101632.59;;;8.12;84.86
61394;BME280;48555;50.952;-0.120;2023-12-20T07:01:15;101639.53;;;8.11;84.99
61394;BME280;48555;50.952;-0.120;2023-12-20T07:03:41;101623.06;;;8.11;85.13
61394;BME280;48555;50.952;-0.120;2023-12-20T07:06:07;101638.66;;;8.12;85.19
61394;BME280;48555;50.952;-0.120;2023-12-20T07:08:33;101640.28;;;8.15;84.88
61394;BME280;48555;50.952;-0.120;2023-12-20T07:10:58;101627.16;;;8.16;84.88
61394;BME280;48555;50.952;-0.120;2023-12-20T07:13:23;101623.63;;;8.17;84.88
61394;BME280;48555;50.952;-0.120;2023-12-20T07:15:49;101631.44;;;8.17;84.74
61394;BME280;48555;50.952;-0.120;2023-12-20T07:18:15;101611.66;;;8.13;84.79
61394;BME280;48555;50.952;-0.120;2023-12-20T07:20:40;101624.69;;;8.13;84.67
61394;BME280;48555;50.952;-0.120;2023-12-20T07:23:06;101620.41;;;8.12;84.42
61394;BME280;48555;50.952;-0.120;2023-12-20T07:25:31;101617.88;;;8.11;84.48
61394;BME280;48555;50.952;-0.120;2023-12-20T07:27:58;101622.19;;;8.12;84.31
61394;BME280;48555;50.952;-0.120;2023-12-20T07:30:23;101618.72;;;8.11;84.23
61394;BME280;48555;50.952;-0.120;2023-12-20T07:32:49;101618.66;;;8.13;84.24
61394;BME280;48555;50.952;-0.120;2023-12-20T07:35:15;101607.44;;;8.11;84.49
61394;BME280;48555;50.952;-0.120;2023-12-20T07:37:41;101618.50;;;8.16;84.39
61394;BME280;48555;50.952;-0.120;2023-12-20T07:40:06;101622.09;;;8.13;84.43
61394;BME280;48555;50.952;-0.120;2023-12-20T07:42:32;101629.06;;;8.13;84.33
61394;BME280;48555;50.952;-0.120;2023-12-20T07:44:58;101628.09;;;8.15;84.38
61394;BME280;48555;50.952;-0.120;2023-12-20T07:47:23;101616.59;;;8.19;84.31
61394;BME280;48555;50.952;-0.120;2023-12-20T07:49:50;101618.22;;;8.22;84.20
61394;BME280;48555;50.952;-0.120;2023-12-20T07:52:17;101595.97;;;8.15;84.18
61394;BME280;48555;50.952;-0.120;2023-12-20T07:54:43;101601.09;;;8.16;84.21
61394;BME280;48555;50.952;-0.120;2023-12-20T07:57:08;101611.47;;;8.18;84.24
61394;BME280;48555;50.952;-0.120;2023-12-20T07:59:34;101595.88;;;8.16;84.42
61394;BME280;48555;50.952;-0.120;2023-12-20T08:01:59;101593.28;;;8.16;84.52
61394;BME280;48555;50.952;-0.120;2023-12-20T08:04:24;101605.47;;;8.16;84.52
61394;BME280;48555;50.952;-0.120;2023-12-20T08:06:50;101615.22;;;8.12;84.74
61394;BME280;48555;50.952;-0.120;2023-12-20T08:09:15;101632.59;;;8.12;84.67
61394;BME280;48555;50.952;-0.120;2023-12-20T08:11:45;101633.66;;;8.08;85.05
61394;BME280;48555;50.952;-0.120;2023-12-20T08:14:11;101640.63;;;8.07;85.08
61394;BME280;48555;50.952;-0.120;2023-12-20T08:16:36;101640.41;;;8.12;85.06
61394;BME280;48555;50.952;-0.120;2023-12-20T08:19:01;101642.34;;;8.26;84.70
61394;BME280;48555;50.952;-0.120;2023-12-20T08:21:26;101638.97;;;8.43;84.88
61394;BME280;48555;50.952;-0.120;2023-12-20T08:23:52;101639.94;;;8.59;84.75
61394;BME280;48555;50.952;-0.120;2023-12-20T08:26:21;101651.38;;;8.74;84.63
61394;BME280;48555;50.952;-0.120;2023-12-20T08:28:48;101640.63;;;8.97;84.98
61394;BME280;48555;50.952;-0.120;2023-12-20T08:31:16;101635.25;;;9.18;84.65
61394;BME280;48555;50.952;-0.120;2023-12-20T08:33:44;101644.31;;;9.44;84.64
61394;BME280;48555;50.952;-0.120;2023-12-20T08:36:10;101622.97;;;9.53;83.89
61394;BME280;48555;50.952;-0.120;2023-12-20T08:38:35;101635.75;;;9.73;84.22
61394;BME280;48555;50.952;-0.120;2023-12-20T08:41:01;101638.63;;;9.85;84.07
61394;BME280;48555;50.952;-0.120;2023-12-20T08:43:28;101645.06;;;9.95;83.83
61394;BME280;48555;50.952;-0.120;2023-12-20T08:45:53;101654.50;;;10.13;83.58
61394;BME280;48555;50.952;-0.120;2023-12-20T08:48:19;101652.31;;;10.37;83.28
61394;BME280;48555;50.952;-0.120;2023-12-20T08:50:44;101643.34;;;10.57;83.17
61394;BME280;48555;50.952;-0.120;2023-12-20T08:53:10;101637.06;;;10.76;82.56
61394;BME280;48555;50.952;-0.120;2023-12-20T08:55:35;101640.84;;;10.86;82.16
61394;BME280;48555;50.952;-0.120;2023-12-20T08:58:00;101643.56;;;10.99;81.65
61394;BME280;48555;50.952;-0.120;2023-12-20T09:00:26;101634.97;;;11.11;81.11
61394;BME280;48555;50.952;-0.120;2023-12-20T09:02:53;101644.06;;;11.20;80.80
61394;BME280;48555;50.952;-0.120;2023-12-20T09:05:19;101654.16;;;11.26;79.71
61394;BME280;48555;50.952;-0.120;2023-12-20T09:07:45;101636.66;;;11.26;79.68
61394;BME280;48555;50.952;-0.120;2023-12-20T09:10:10;101643.78;;;11.24;79.43
61394;BME280;48555;50.952;-0.120;2023-12-20T09:12:35;101633.78;;;11.17;79.17
61394;BME280;48555;50.952;-0.120;2023-12-20T09:15:05;101640.31;;;11.09;79.57
61394;BME280;48555;50.952;-0.120;2023-12-20T09:17:30;101641.53;;;11.04;79.71
61394;BME280;48555;50.952;-0.120;2023-12-20T09:19:56;101633.09;;;10.99;79.92
61394;BME280;48555;50.952;-0.120;2023-12-20T09:22:21;101633.09;;;10.99;80.18
61394;BME280;48555;50.952;-0.120;2023-12-20T09:24:47;101624.59;;;10.95;80.04
61394;BME280;48555;50.952;-0.120;2023-12-20T09:27:12;101647.13;;;10.98;80.14
61394;BME280;48555;50.952;-0.120;2023-12-20T09:29:37;101638.69;;;10.93;80.20
61394;BME280;48555;50.952;-0.120;2023-12-20T09:32:03;101616.59;;;10.82;80.38
61394;BME280;48555;50.952;-0.120;2023-12-20T09:34:28;101629.34;;;10.88;80.30
61394;BME280;48555;50.952;-0.120;2023-12-20T09:36:54;101641.31;;;10.93;80.31
61394;BME280;48555;50.952;-0.120;2023-12-20T09:39:20;101622.03;;;10.94;80.27
61394;BME280;48555;50.952;-0.120;2023-12-20T09:42:00;101624.78;;;10.92;80.51
61394;BME280;48555;50.952;-0.120;2023-12-20T09:44:26;101622.81;;;10.96;80.36
61394;BME280;48555;50.952;-0.120;2023-12-20T09:46:52;101621.03;;;10.96;81.26
61394;BME280;48555;50.952;-0.120;2023-12-20T09:49:19;101632.31;;;10.97;81.70
61394;BME280;48555;50.952;-0.120;2023-12-20T09:51:46;101638.25;;;11.00;82.06
61394;BME280;48555;50.952;-0.120;2023-12-20T09:54:14;101641.53;;;11.04;81.97
61394;BME280;48555;50.952;-0.120;2023-12-20T09:56:39;101639.38;;;11.10;82.26
61394;BME280;48555;50.952;-0.120;2023-12-20T09:59:04;101650.41;;;11.16;82.25
61394;BME280;48555;50.952;-0.120;2023-12-20T10:01:31;101632.66;;;11.06;82.46
61394;BME280;48555;50.952;-0.120;2023-12-20T10:03:57;101649.03;;;11.24;82.52
61394;BME280;48555;50.952;-0.120;2023-12-20T10:06:24;101653.63;;;11.21;82.75
61394;BME280;48555;50.952;-0.120;2023-12-20T10:08:49;101650.25;;;11.19;82.52
61394;BME280;48555;50.952;-0.120;2023-12-20T10:11:15;101645.47;;;11.25;82.34
61394;BME280;48555;50.952;-0.120;2023-12-20T10:13:40;101649.75;;;11.26;82.38
61394;BME280;48555;50.952;-0.120;2023-12-20T10:16:06;101653.13;;;11.28;82.29
61394;BME280;48555;50.952;-0.120;2023-12-20T10:18:33;101645.66;;;11.22;81.97
61394;BME280;48555;50.952;-0.120;2023-12-20T10:20:58;101650.06;;;11.22;82.24
61394;BME280;48555;50.952;-0.120;2023-12-20T10:23:23;101641.72;;;11.15;82.60
61394;BME280;48555;50.952;-0.120;2023-12-20T10:25:56;101647.63;;;11.19;82.64
61394;BME280;48555;50.952;-0.120;2023-12-20T10:28:23;101645.91;;;11.18;82.71
61394;BME280;48555;50.952;-0.120;2023-12-20T10:30:53;101622.66;;;11.13;83.06
61394;BME280;48555;50.952;-0.120;2023-12-20T10:33:26;101624.63;;;11.09;83.02
61394;BME280;48555;50.952;-0.120;2023-12-20T10:35:52;101613.13;;;11.12;83.09
61394;BME280;48555;50.952;-0.120;2023-12-20T10:38:18;101607.78;;;11.13;83.47
61394;BME280;48555;50.952;-0.120;2023-12-20T10:40:45;101599.28;;;11.10;83.51
61394;BME280;48555;50.952;-0.120;2023-12-20T10:43:11;101600.69;;;11.16;83.38
61394;BME280;48555;50.952;-0.120;2023-12-20T10:45:36;101590.94;;;11.18;83.51
61394;BME280;48555;50.952;-0.120;2023-12-20T10:48:03;101593.56;;;11.18;83.49
61394;BME280;48555;50.952;-0.120;2023-12-20T10:50:29;101596.03;;;11.21;83.36
61394;BME280;48555;50.952;-0.120;2023-12-20T10:52:56;101596.19;;;11.18;83.65
61394;BME280;48555;50.952;-0.120;2023-12-20T10:55:22;101560.28;;;11.05;83.54
61394;BME280;48555;50.952;-0.120;2023-12-20T10:57:50;101582.06;;;11.20;83.71
61394;BME280;48555;50.952;-0.120;2023-12-20T11:00:17;101573.56;;;11.17;83.94
61394;BME280;48555;50.952;-0.120;2023-12-20T11:02:43;101579.38;;;11.22;83.99
61394;BME280;48555;50.952;-0.120;2023-12-20T11:08:05;101566.91;;;11.25;83.85
61394;BME280;48555;50.952;-0.120;2023-12-20T11:11:02;101579.81;;;11.28;84.17
61394;BME280;48555;50.952;-0.120;2023-12-20T11:13:44;101563.53;;;11.23;84.20
61394;BME280;48555;50.952;-0.120;2023-12-20T11:16:13;101562.25;;;11.30;83.82
61394;BME280;48555;50.952;-0.120;2023-12-20T11:18:40;101557.84;;;11.31;83.77
61394;BME280;48555;50.952;-0.120;2023-12-20T11:21:06;101563.00;;;11.32;84.08
61394;BME280;48555;50.952;-0.120;2023-12-20T11:23:32;101564.50;;;11.36;83.88
61394;BME280;48555;50.952;-0.120;2023-12-20T11:25:59;101552.34;;;11.35;84.11
61394;BME280;48555;50.952;-0.120;2023-12-20T11:28:26;101545.22;;;11.37;84.20
61394;BME280;48555;50.952;-0.120;2023-12-20T11:30:52;101546.53;;;11.45;84.26
61394;BME280;48555;50.952;-0.120;2023-12-20T11:33:22;101534.34;;;11.44;84.08
61394;BME280;48555;50.952;-0.120;2023-12-20T11:35:48;101537.72;;;11.46;83.97
61394;BME280;48555;50.952;-0.120;2023-12-20T11:38:14;101540.34;;;11.46;83.79
61394;BME280;48555;50.952;-0.120;2023-12-20T11:40:41;101530.81;;;11.45;83.75
61394;BME280;48555;50.952;-0.120;2023-12-20T11:43:07;101533.44;;;11.45;83.67
61394;BME280;48555;50.952;-0.120;2023-12-20T11:45:33;101513.41;;;11.44;83.79
61394;BME280;48555;50.952;-0.120;2023-12-20T11:48:01;101518.63;;;11.44;83.65
61394;BME280;48555;50.952;-0.120;2023-12-20T11:50:27;101501.91;;;11.46;83.55
61394;BME280;48555;50.952;-0.120;2023-12-20T11:52:53;101497.59;;;11.45;83.64
61394;BME280;48555;50.952;-0.120;2023-12-20T11:55:21;101501.69;;;11.49;83.79
61394;BME280;48555;50.952;-0.120;2023-12-20T11:57:46;101490.38;;;11.49;83.66
61394;BME280;48555;50.952;-0.120;2023-12-20T12:00:13;101492.06;;;11.50;83.54
61394;BME280;48555;50.952;-0.120;2023-12-20T12:02:39;101482.84;;;11.44;83.52
61394;BME280;48555;50.952;-0.120;2023-12-20T12:05:05;101482.84;;;11.44;83.52
61394;BME280;48555;50.952;-0.120;2023-12-20T12:07:31;101465.19;;;11.33;83.52
61394;BME280;48555;50.952;-0.120;2023-12-20T12:09:56;101479.91;;;11.49;83.36
61394;BME280;48555;50.952;-0.120;2023-12-20T12:12:21;101466.22;;;11.58;83.26
61394;BME280;48555;50.952;-0.120;2023-12-20T12:14:47;101458.38;;;11.58;83.00
61394;BME280;48555;50.952;-0.120;2023-12-20T12:17:13;101446.84;;;11.60;83.30
61394;BME280;48555;50.952;-0.120;2023-12-20T12:19:43;101442.03;;;11.67;83.09
61394;BME280;48555;50.952;-0.120;2023-12-20T12:22:15;101434.75;;;11.72;83.13
61394;BME280;48555;50.952;-0.120;2023-12-20T12:24:45;101428.88;;;11.81;82.92
61394;BME280;48555;50.952;-0.120;2023-12-20T12:27:12;101438.44;;;11.82;82.73
61394;BME280;48555;50.952;-0.120;2023-12-20T12:29:38;101453.06;;;11.87;82.63
61394;BME280;48555;50.952;-0.120;2023-12-20T12:32:07;101445.19;;;11.87;82.37
61394;BME280;48555;50.952;-0.120;2023-12-20T12:34:36;101446.97;;;11.86;82.08
61394;BME280;48555;50.952;-0.120;2023-12-20T12:37:03;101436.38;;;11.88;82.00
61394;BME280;48555;50.952;-0.120;2023-12-20T12:39:29;101439.00;;;11.88;81.61
61394;BME280;48555;50.952;-0.120;2023-12-20T12:41:55;101428.69;;;11.85;81.49
61394;BME280;48555;50.952;-0.120;2023-12-20T12:44:20;101435.16;;;11.79;81.54